Time;durP1;ratioP1;P1;durP2;ratioP2;P2;SDS_P1;SDS_P2;PMS_P1;PMS_P2;Temp;Humidity;BMP_temperature;BMP_pressure;BME280_temperature;BME280_humidity;BME280_pressure;Samples;Min_cycle;Max_cycle;Signal;HPM_P1;HPM_P2
2022/09/12 00:02:06;;;;;;;1.47;0.80;;;;;;;21.17;51.79;94879.44;5054862;28;20929;-65
2022/09/12 00:04:33;;;;;;;0.10;0.10;;;;;;;20.72;52.51;94884.47;5039962;28;20481;-64
2022/09/12 00:07:00;;;;;;;0.30;0.30;;;;;;;20.75;52.48;94883.03;5052457;28;20470;-64
2022/09/12 00:09:26;;;;;;;0.30;0.30;;;;;;;21.03;51.76;94893.00;5051794;28;20443;-67
2022/09/12 00:11:53;;;;;;;0.40;0.40;;;;;;;20.68;52.67;94893.41;5052337;28;20439;-65
2022/09/12 00:14:20;;;;;;;0.30;0.30;;;;;;;21.11;51.63;94891.41;5034534;28;20493;-66
2022/09/12 00:16:47;;;;;;;0.70;0.70;;;;;;;21.01;51.34;94886.41;5041805;28;20468;-67
2022/09/12 00:19:14;;;;;;;0.20;0.20;;;;;;;20.58;52.93;94897.22;5051836;28;20447;-68
2022/09/12 00:21:41;;;;;;;0.60;0.60;;;;;;;20.33;53.09;94892.72;5052220;28;20534;-69
2022/09/12 00:24:09;;;;;;;0.20;0.20;;;;;;;20.48;52.93;94900.19;5037671;28;20451;-67
2022/09/12 00:26:36;;;;;;;0.63;0.63;;;;;;;20.68;51.80;94899.53;5051858;28;20604;-66
2022/09/12 00:29:03;;;;;;;0.73;0.63;;;;;;;20.92;51.52;94901.63;5037243;28;20881;-66
2022/09/12 00:31:30;;;;;;;0.23;0.23;;;;;;;19.75;54.50;94895.06;5036673;28;20471;-68
2022/09/12 00:34:02;;;;;;;0.23;0.23;;;;;;;20.41;53.24;94899.91;5051649;28;20448;-66
2022/09/12 00:36:29;;;;;;;0.20;0.20;;;;;;;20.76;52.16;94896.06;5051562;28;20447;-67
2022/09/12 00:38:57;;;;;;;1.20;1.13;;;;;;;20.41;52.86;94891.13;5041452;28;20482;-68
2022/09/12 00:41:33;;;;;;;0.30;0.30;;;;;;;20.17;52.98;94896.97;5031489;28;20494;-68
2022/09/12 00:44:02;;;;;;;0.10;0.10;;;;;;;20.33;52.71;94898.03;5041304;28;20462;-66
2022/09/12 00:46:48;;;;;;;0.20;0.20;;;;;;;20.89;50.82;94900.38;5034911;28;20529;-68
2022/09/12 00:49:26;;;;;;;0.43;0.43;;;;;;;20.86;50.90;94903.69;5031598;28;20440;-67
2022/09/12 00:52:07;;;;;;;0.63;0.60;;;;;;;20.45;51.48;94905.38;5035911;28;20493;-71
2022/09/12 00:54:46;;;;;;;0.33;0.30;;;;;;;20.42;51.72;94895.38;5040272;28;20447;-66
2022/09/12 00:57:15;;;;;;;1.03;0.53;;;;;;;20.07;52.51;94902.59;5037516;28;20677;-67
2022/09/12 00:59:49;;;;;;;0.20;0.20;;;;;;;20.58;51.21;94893.75;5042466;28;20559;-68
2022/09/12 01:02:16;;;;;;;0.10;0.10;;;;;;;19.91;52.57;94896.16;5048003;28;20455;-66
2022/09/12 01:04:44;;;;;;;0.20;0.20;;;;;;;20.04;52.16;94884.56;5043023;28;20458;-67
2022/09/12 01:07:12;;;;;;;0.53;0.53;;;;;;;19.97;52.71;94887.72;5031846;28;20845;-66
2022/09/12 01:09:41;;;;;;;0.10;0.10;;;;;;;19.74;53.02;94888.19;5044278;28;20478;-65
2022/09/12 01:12:09;;;;;;;0.33;0.33;;;;;;;19.84;52.96;94879.91;5044571;28;20450;-68
2022/09/12 01:14:37;;;;;;;0.10;0.10;;;;;;;20.18;52.14;94879.91;5019236;28;20488;-66
2022/09/12 01:17:04;;;;;;;0.20;0.20;;;;;;;20.12;52.10;94875.81;5050482;28;20937;-67
2022/09/12 01:19:44;;;;;;;0.20;0.20;;;;;;;20.57;50.89;94871.69;5046096;28;20428;-67
2022/09/12 01:22:41;;;;;;;0.50;0.50;;;;;;;20.58;50.76;94873.25;5030494;28;20482;-67
2022/09/12 01:25:13;;;;;;;0.30;0.30;;;;;;;20.72;50.41;94879.16;5030888;28;20451;-68
2022/09/12 01:27:54;;;;;;;0.77;0.70;;;;;;;20.13;51.54;94877.38;5043656;28;20457;-68
2022/09/12 01:30:59;;;;;;;0.37;0.30;;;;;;;20.39;50.95;94880.00;5040318;28;20913;-67
2022/09/12 01:33:26;;;;;;;1.00;1.00;;;;;;;20.18;51.44;94872.69;5047767;28;20443;-68
2022/09/12 01:36:18;;;;;;;0.40;0.40;;;;;;;20.10;51.47;94878.00;5048020;28;20534;-65
2022/09/12 01:39:00;;;;;;;0.73;0.60;;;;;;;20.11;51.19;94884.88;5044908;28;20565;-68
2022/09/12 01:41:39;;;;;;;0.30;0.30;;;;;;;20.11;51.40;94876.91;5050327;28;20542;-68
2022/09/12 01:44:14;;;;;;;0.43;0.20;;;;;;;19.96;51.56;94877.41;5039371;28;20475;-66
2022/09/12 01:46:52;;;;;;;0.10;0.10;;;;;;;20.04;51.04;94884.56;5034287;28;20580;-65
2022/09/12 01:49:36;;;;;;;0.33;0.33;;;;;;;20.19;50.73;94878.81;5037981;28;20447;-68
2022/09/12 01:52:24;;;;;;;0.20;0.20;;;;;;;20.58;50.13;94873.25;5030093;28;20436;-67
2022/09/12 01:54:54;;;;;;;0.20;0.20;;;;;;;20.14;50.90;94860.31;5030753;28;20440;-68
2022/09/12 01:57:31;;;;;;;0.77;0.77;;;;;;;19.98;51.33;94870.66;5036134;28;20853;-66
2022/09/12 02:00:24;;;;;;;0.80;0.80;;;;;;;20.02;50.87;94852.19;5038811;28;20528;-66
2022/09/12 02:03:03;;;;;;;0.40;0.40;;;;;;;19.99;51.14;94866.13;5029661;28;20452;-68
2022/09/12 02:05:38;;;;;;;0.17;0.17;;;;;;;19.35;52.16;94856.41;5029809;28;20495;-68
2022/09/12 02:08:13;;;;;;;0.27;0.27;;;;;;;20.09;51.27;94857.81;5038268;28;20980;-67
2022/09/12 02:11:05;;;;;;;0.20;0.20;;;;;;;19.99;50.80;94855.50;5035875;28;20448;-67
2022/09/12 02:13:48;;;;;;;0.33;0.33;;;;;;;20.23;50.40;94870.97;5039105;28;20443;-66
2022/09/12 02:16:24;;;;;;;0.10;0.10;;;;;;;20.32;49.98;94874.41;5049702;28;20443;-67
2022/09/12 02:18:56;;;;;;;0.30;0.30;;;;;;;20.14;50.40;94870.97;5050287;28;20504;-65
2022/09/12 02:21:26;;;;;;;0.30;0.30;;;;;;;19.99;50.67;94876.75;5035794;28;20443;-65
2022/09/12 02:23:58;;;;;;;0.13;0.13;;;;;;;19.67;51.30;94874.59;5037941;28;20820;-66
2022/09/12 02:26:41;;;;;;;1.00;0.83;;;;;;;19.83;51.04;94879.13;5028438;28;20576;-67
2022/09/12 02:29:08;;;;;;;0.07;0.07;;;;;;;19.93;50.64;94867.38;5043594;28;20446;-67
2022/09/12 02:31:39;;;;;;;0.47;0.37;;;;;;;19.66;51.31;94873.00;5043816;28;20853;-69
2022/09/12 02:34:48;;;;;;;2.30;0.70;;;;;;;20.01;50.69;94874.56;5042149;28;20471;-67
2022/09/12 02:37:31;;;;;;;0.20;0.20;;;;;;;19.98;50.09;94875.97;5039271;28;20440;-68
2022/09/12 02:39:59;;;;;;;0.30;0.30;;;;;;;19.94;50.02;94874.28;5047957;28;20437;-65
2022/09/12 02:42:26;;;;;;;0.67;0.67;;;;;;;20.17;50.06;94873.81;5048072;28;20479;-66
2022/09/12 02:44:55;;;;;;;0.20;0.20;;;;;;;20.36;49.17;94885.97;5049434;28;20431;-68
2022/09/12 02:47:30;;;;;;;0.10;0.10;;;;;;;20.29;49.43;94878.47;5039762;28;21088;-65
2022/09/12 02:49:59;;;;;;;0.30;0.30;;;;;;;20.53;48.49;94875.31;5043954;28;20447;-68
2022/09/12 02:52:27;;;;;;;0.10;0.10;;;;;;;20.45;48.89;94879.56;5038615;28;20431;-65
2022/09/12 02:54:56;;;;;;;0.10;0.10;;;;;;;20.25;49.08;94879.44;5035438;28;20793;-66
2022/09/12 02:57:23;;;;;;;0.33;0.33;;;;;;;20.14;49.06;94882.38;5031164;28;20476;-69
2022/09/12 02:59:54;;;;;;;0.20;0.20;;;;;;;20.59;48.49;94888.13;5028094;28;20813;-65
2022/09/12 03:02:27;;;;;;;0.23;0.23;;;;;;;20.75;47.78;94899.03;5046332;28;20868;-67
2022/09/12 03:05:26;;;;;;;0.10;0.10;;;;;;;20.80;47.79;94902.28;5039280;28;20448;-68
2022/09/12 03:08:07;;;;;;;0.40;0.40;;;;;;;20.71;47.81;94904.19;5029382;28;21077;-66
2022/09/12 03:11:21;;;;;;;0.90;0.80;;;;;;;20.41;48.38;94893.78;5029324;28;20558;-68
2022/09/12 03:14:00;;;;;;;0.10;0.10;;;;;;;19.98;48.94;94883.97;5050217;28;20986;-67
2022/09/12 03:16:36;;;;;;;0.10;0.10;;;;;;;20.56;48.31;94899.41;5036536;28;20446;-67
2022/09/12 03:19:32;;;;;;;0.20;0.20;;;;;;;20.27;48.72;94894.00;5048597;28;20442;-66
2022/09/12 03:22:05;;;;;;;0.10;0.10;;;;;;;20.49;48.07;94896.44;5040145;28;20518;-68
2022/09/12 03:24:39;;;;;;;1.00;1.00;;;;;;;20.48;48.10;94889.56;5045563;28;20456;-68
2022/09/12 03:27:19;;;;;;;0.20;0.20;;;;;;;20.05;49.17;94891.47;5040095;28;20478;-67
2022/09/12 03:29:48;;;;;;;0.47;0.47;;;;;;;20.17;48.88;94879.13;5048568;28;20496;-66
2022/09/12 03:32:15;;;;;;;0.63;0.63;;;;;;;20.02;49.05;94889.44;5037975;28;20440;-66
2022/09/12 03:34:41;;;;;;;0.63;0.47;;;;;;;19.59;50.06;94884.13;5043080;28;20440;-66
2022/09/12 03:37:08;;;;;;;0.40;0.40;;;;;;;19.99;49.29;94898.03;5038756;28;20504;-67
2022/09/12 03:39:35;;;;;;;0.10;0.10;;;;;;;19.67;49.87;94895.84;5047469;28;20888;-67
2022/09/12 03:42:02;;;;;;;0.10;0.10;;;;;;;20.13;48.94;94888.00;5028973;28;20934;-66
2022/09/12 03:44:29;;;;;;;0.30;0.30;;;;;;;19.52;50.02;94883.81;5042696;28;20562;-66
2022/09/12 03:46:56;;;;;;;0.70;0.57;;;;;;;19.68;50.20;94892.09;5049305;28;20555;-66
2022/09/12 03:49:22;;;;;;;0.40;0.40;;;;;;;19.83;49.78;94894.28;5049349;28;20522;-67
2022/09/12 03:51:49;;;;;;;0.37;0.37;;;;;;;19.90;49.48;94897.25;5037108;28;20447;-67
2022/09/12 03:54:16;;;;;;;0.10;0.10;;;;;;;19.70;50.08;94889.91;5051493;28;20431;-68
2022/09/12 03:56:43;;;;;;;0.10;0.10;;;;;;;19.69;50.51;94891.00;5038768;28;20494;-67
2022/09/12 03:59:10;;;;;;;0.70;0.70;;;;;;;19.48;51.10;94892.69;5037666;28;20434;-65
2022/09/12 04:01:37;;;;;;;1.33;0.53;;;;;;;19.40;50.62;94896.91;5045655;28;20883;-66
2022/09/12 04:04:04;;;;;;;0.23;0.23;;;;;;;19.58;50.56;94903.81;5038872;28;20479;-68
2022/09/12 04:06:31;;;;;;;0.23;0.23;;;;;;;19.66;50.21;94878.31;5051919;28;20474;-67
2022/09/12 04:08:58;;;;;;;0.53;0.53;;;;;;;20.15;49.53;94907.91;5050896;28;20893;-66
2022/09/12 04:11:25;;;;;;;0.10;0.10;;;;;;;19.73;50.21;94900.69;5040197;28;20534;-67
2022/09/12 04:13:51;;;;;;;0.77;0.77;;;;;;;19.34;50.67;94897.38;5051993;28;20447;-66
2022/09/12 04:16:19;;;;;;;0.30;0.30;;;;;;;19.72;49.96;94893.03;5038138;28;20446;-68
2022/09/12 04:18:46;;;;;;;0.20;0.20;;;;;;;19.52;50.29;94897.09;5052087;28;20447;-65
2022/09/12 04:21:18;;;;;;;0.10;0.10;;;;;;;19.13;51.11;94913.84;5038029;28;21111;-67
2022/09/12 04:23:45;;;;;;;0.27;0.27;;;;;;;19.71;50.05;94894.13;5052452;28;20453;-68
2022/09/12 04:26:13;;;;;;;0.47;0.47;;;;;;;19.76;49.83;94904.63;5051330;28;20570;-67
2022/09/12 04:28:40;;;;;;;0.57;0.50;;;;;;;19.82;49.48;94898.81;5051434;28;20536;-67
2022/09/12 04:31:11;;;;;;;0.27;0.23;;;;;;;19.81;49.64;94907.13;5049888;28;20521;-67
2022/09/12 04:33:38;;;;;;;0.20;0.20;;;;;;;20.20;48.90;94908.88;5031914;28;20471;-66
2022/09/12 04:36:13;;;;;;;0.93;0.90;;;;;;;20.08;49.12;94906.81;5046594;28;20902;-68
2022/09/12 04:38:40;;;;;;;0.20;0.20;;;;;;;19.72;49.64;94909.00;5055148;28;20518;-66
2022/09/12 04:41:14;;;;;;;0.30;0.30;;;;;;;19.98;49.35;94907.13;5036042;28;20444;-68
2022/09/12 04:43:42;;;;;;;0.40;0.40;;;;;;;19.55;50.41;94903.66;5038490;28;20485;-67
2022/09/12 04:46:10;;;;;;;0.53;0.47;;;;;;;19.82;49.92;94906.81;5051209;28;20471;-66
2022/09/12 04:48:38;;;;;;;0.47;0.47;;;;;;;19.84;49.83;94911.81;5051157;28;20466;-66
2022/09/12 04:51:12;;;;;;;0.83;0.83;;;;;;;19.94;49.38;94916.81;5039529;28;20938;-69
2022/09/12 04:53:40;;;;;;;0.33;0.30;;;;;;;19.52;50.63;94920.22;5035992;28;20472;-68
2022/09/12 04:56:08;;;;;;;0.40;0.30;;;;;;;20.50;48.43;94902.53;5039749;28;20543;-67
2022/09/12 04:58:36;;;;;;;0.57;0.47;;;;;;;20.17;49.24;94918.25;5044809;28;20443;-68
2022/09/12 05:01:05;;;;;;;0.23;0.23;;;;;;;20.30;48.97;94914.63;5031025;28;20452;-69
2022/09/12 05:03:32;;;;;;;0.10;0.10;;;;;;;20.24;49.15;94910.56;5043888;28;20718;-68
2022/09/12 05:06:02;;;;;;;0.20;0.20;;;;;;;20.03;49.61;94914.94;5050538;28;20446;-67
2022/09/12 05:08:29;;;;;;;0.33;0.33;;;;;;;19.81;50.04;94918.53;5050851;28;20516;-68
2022/09/12 05:11:03;;;;;;;0.20;0.20;;;;;;;19.78;50.00;94923.72;5032888;28;20447;-68
2022/09/12 05:13:32;;;;;;;0.20;0.20;;;;;;;19.37;51.15;94925.97;5041676;28;20450;-67
2022/09/12 05:16:01;;;;;;;0.20;0.20;;;;;;;20.06;49.40;94917.75;5050877;28;20443;-69
2022/09/12 05:18:31;;;;;;;0.37;0.37;;;;;;;20.19;49.39;94924.03;5040907;28;20505;-67
2022/09/12 05:20:59;;;;;;;0.50;0.50;;;;;;;20.34;48.49;94923.56;5045017;28;21305;-67
2022/09/12 05:23:27;;;;;;;0.20;0.20;;;;;;;20.14;48.95;94914.28;5031046;28;20942;-66
2022/09/12 05:25:56;;;;;;;0.20;0.20;;;;;;;20.55;48.23;94916.47;5045470;28;20447;-67
2022/09/12 05:28:27;;;;;;;0.27;0.27;;;;;;;20.13;48.58;94914.63;5050741;28;21313;-67
2022/09/12 05:31:01;;;;;;;0.40;0.40;;;;;;;20.29;48.58;94917.63;5036675;28;20518;-69
2022/09/12 05:33:29;;;;;;;0.30;0.30;;;;;;;19.61;49.69;94926.34;5030972;28;20448;-68
2022/09/12 05:35:56;;;;;;;1.60;1.10;;;;;;;19.99;48.72;94914.00;5044179;28;20447;-67
2022/09/12 05:38:27;;;;;;;0.10;0.10;;;;;;;20.37;48.47;94920.25;5050445;28;20471;-67
2022/09/12 05:41:11;;;;;;;0.73;0.47;;;;;;;20.16;48.51;94919.31;5050349;28;20443;-66
2022/09/12 05:43:45;;;;;;;0.20;0.20;;;;;;;20.52;47.78;94921.66;5030160;28;20472;-69
2022/09/12 05:46:18;;;;;;;0.07;0.07;;;;;;;20.17;48.46;94928.88;5030164;28;20932;-70
2022/09/12 05:48:46;;;;;;;1.27;1.17;;;;;;;20.04;48.80;94916.50;5043681;28;20529;-67
2022/09/12 05:51:19;;;;;;;0.77;0.77;;;;;;;20.70;47.59;94915.97;5030032;28;20440;-67
2022/09/12 05:53:58;;;;;;;0.30;0.30;;;;;;;20.89;46.68;94899.63;5036070;28;20447;-69
2022/09/12 05:56:27;;;;;;;0.70;0.70;;;;;;;21.06;46.23;94899.56;5039635;28;20436;-69
2022/09/12 05:58:59;;;;;;;0.17;0.17;;;;;;;21.37;45.98;94909.94;5029882;28;20486;-68
2022/09/12 06:01:28;;;;;;;0.37;0.37;;;;;;;21.34;46.03;94894.56;5029615;28;21063;-67
2022/09/12 06:03:59;;;;;;;0.30;0.30;;;;;;;21.64;45.30;94891.53;5045861;28;20474;-69
2022/09/12 06:06:28;;;;;;;1.03;0.80;;;;;;;21.77;44.95;94895.09;5050064;28;20525;-69
2022/09/12 06:08:58;;;;;;;0.10;0.10;;;;;;;21.73;44.58;94886.16;5048770;28;20874;-66
2022/09/12 06:11:27;;;;;;;0.30;0.30;;;;;;;21.56;45.94;94891.59;5029625;28;21025;-67
2022/09/12 06:13:56;;;;;;;0.60;0.60;;;;;;;22.36;44.17;94885.00;5029648;28;20946;-67
2022/09/12 06:16:31;;;;;;;0.20;0.20;;;;;;;21.61;44.24;94841.53;5036873;28;20920;-66
2022/09/12 06:19:05;;;;;;;0.60;0.53;;;;;;;21.96;44.37;94885.53;5049761;28;20978;-68
2022/09/12 06:21:34;;;;;;;0.43;0.43;;;;;;;21.37;45.08;94893.94;5036827;28;20501;-66
2022/09/12 06:24:01;;;;;;;0.73;0.63;;;;;;;21.50;44.60;94887.56;5049696;28;20953;-67
2022/09/12 06:26:28;;;;;;;0.13;0.13;;;;;;;21.66;44.97;94886.66;5049664;28;20570;-69
2022/09/12 06:28:58;;;;;;;0.27;0.27;;;;;;;21.37;44.99;94899.25;5049911;28;20522;-68
2022/09/12 06:31:28;;;;;;;0.47;0.43;;;;;;;21.56;45.58;94905.72;5049346;28;20824;-67
2022/09/12 06:33:58;;;;;;;0.73;0.73;;;;;;;21.14;45.73;94907.53;5049386;28;20438;-69
2022/09/12 06:36:28;;;;;;;0.97;0.77;;;;;;;21.17;45.88;94910.66;5035586;28;20535;-66
2022/09/12 06:39:01;;;;;;;0.10;0.10;;;;;;;21.35;45.66;94920.13;5039228;28;20946;-66
2022/09/12 06:41:30;;;;;;;2.20;1.33;;;;;;;21.50;45.75;94914.22;5032931;28;20544;-68
2022/09/12 06:43:57;;;;;;;0.63;0.63;;;;;;;22.05;44.67;94917.47;5048006;28;20491;-67
2022/09/12 06:46:25;;;;;;;0.20;0.20;;;;;;;22.20;44.76;94919.56;5035263;28;20483;-68
2022/09/12 06:48:54;;;;;;;0.73;0.73;;;;;;;21.98;45.29;94917.22;5041527;28;21237;-67
2022/09/12 06:51:21;;;;;;;0.57;0.57;;;;;;;22.02;44.68;94920.81;5030023;28;20886;-68
2022/09/12 06:53:48;;;;;;;0.67;0.67;;;;;;;22.52;44.97;94923.31;5035132;28;20451;-66
2022/09/12 06:56:20;;;;;;;0.27;0.27;;;;;;;21.88;44.86;94920.25;5043660;28;20475;-68
2022/09/12 06:58:49;;;;;;;1.07;0.50;;;;;;;22.06;44.55;94929.72;5043123;28;20451;-68
2022/09/12 07:01:18;;;;;;;1.10;0.73;;;;;;;22.50;44.25;94929.00;5037123;28;20436;-67
2022/09/12 07:03:51;;;;;;;0.23;0.23;;;;;;;22.36;43.86;94931.19;5049315;28;20479;-69
2022/09/12 07:06:21;;;;;;;0.30;0.30;;;;;;;21.64;44.62;94936.13;5042541;28;20444;-70
2022/09/12 07:08:51;;;;;;;1.00;0.97;;;;;;;21.38;45.26;94938.13;5050973;28;20443;-62
2022/09/12 07:11:24;;;;;;;0.30;0.30;;;;;;;21.34;45.32;94894.56;5056213;28;20475;-66
2022/09/12 07:13:55;;;;;;;0.80;0.77;;;;;;;21.53;45.41;94940.25;5047845;28;20448;-68
2022/09/12 07:16:22;;;;;;;0.67;0.67;;;;;;;22.15;44.41;94941.88;5042948;28;20444;-67
2022/09/12 07:18:51;;;;;;;0.17;0.17;;;;;;;22.87;44.02;94944.06;5041827;28;20501;-67
2022/09/12 07:21:19;;;;;;;0.57;0.57;;;;;;;22.71;43.68;94937.78;5048704;28;20447;-66
2022/09/12 07:23:46;;;;;;;0.60;0.60;;;;;;;22.95;43.81;94948.53;5037643;28;20542;-68
2022/09/12 07:26:15;;;;;;;0.67;0.67;;;;;;;22.25;43.03;94946.03;5048700;28;20530;-66
2022/09/12 07:28:42;;;;;;;0.50;0.50;;;;;;;22.64;43.58;94932.22;5043042;28;21357;-68
2022/09/12 07:31:15;;;;;;;0.30;0.30;;;;;;;23.01;42.09;94936.50;5045952;28;20439;-65
2022/09/12 07:33:43;;;;;;;0.53;0.53;;;;;;;23.18;41.66;94930.19;5042215;28;20885;-66
2022/09/12 07:36:15;;;;;;;1.60;1.43;;;;;;;23.01;43.10;94927.69;5038771;28;20451;-66
2022/09/12 07:38:42;;;;;;;0.43;0.43;;;;;;;23.09;40.83;94926.81;5052767;28;20875;-68
2022/09/12 07:41:11;;;;;;;0.43;0.43;;;;;;;23.69;40.88;94912.69;5038016;28;20436;-66
2022/09/12 07:43:38;;;;;;;0.57;0.57;;;;;;;23.98;40.80;94909.72;5052465;28;20232;-69
2022/09/12 07:46:05;;;;;;;0.70;0.70;;;;;;;23.36;39.56;94925.41;5053034;28;20518;-66
2022/09/12 07:48:32;;;;;;;0.43;0.43;;;;;;;23.14;39.92;94934.63;5033262;28;20884;-65
2022/09/12 07:51:02;;;;;;;0.70;0.70;;;;;;;23.20;40.28;94922.59;5033319;28;20958;-67
2022/09/12 07:53:35;;;;;;;0.57;0.57;;;;;;;23.72;39.45;94925.41;5049842;28;20272;-68
2022/09/12 07:56:04;;;;;;;0.23;0.23;;;;;;;24.46;38.56;94920.31;5043993;28;20201;-67
2022/09/12 07:58:32;;;;;;;1.60;1.37;;;;;;;24.14;38.78;94926.69;5032301;28;20652;-69
2022/09/12 08:01:11;;;;;;;0.30;0.30;;;;;;;23.61;38.30;94922.38;5052132;28;20702;-67
2022/09/12 08:03:39;;;;;;;0.80;0.80;;;;;;;23.71;37.61;94921.16;5039046;28;20255;-68
2022/09/12 08:06:07;;;;;;;0.50;0.50;;;;;;;23.68;38.43;94921.84;5052354;28;20185;-68
2022/09/12 08:08:35;;;;;;;0.17;0.17;;;;;;;24.16;38.68;94927.09;5052052;28;20225;-69
2022/09/12 08:11:04;;;;;;;0.20;0.20;;;;;;;24.25;37.76;94919.69;5032361;28;20240;-67
2022/09/12 08:13:34;;;;;;;0.20;0.20;;;;;;;24.59;37.80;94927.16;5032512;28;20201;-67
2022/09/12 08:16:04;;;;;;;0.40;0.40;;;;;;;24.63;37.80;94924.59;5049655;28;20228;-64
2022/09/12 08:18:33;;;;;;;1.10;1.07;;;;;;;24.41;37.94;94925.13;5052172;28;20269;-69
2022/09/12 08:21:04;;;;;;;0.73;0.60;;;;;;;24.49;37.38;94924.97;5051625;28;20196;-66
2022/09/12 08:23:31;;;;;;;0.43;0.43;;;;;;;24.35;37.74;94927.28;5051953;28;20205;-68
2022/09/12 08:26:00;;;;;;;0.80;0.80;;;;;;;23.84;38.02;94920.03;5051627;28;20230;-65
2022/09/12 08:28:33;;;;;;;2.53;0.97;;;;;;;23.51;38.02;94932.78;5043239;28;20271;-65
2022/09/12 08:31:01;;;;;;;0.20;0.20;;;;;;;23.72;38.22;94922.72;5045718;28;20196;-67
2022/09/12 08:33:34;;;;;;;0.50;0.50;;;;;;;23.88;38.83;94924.38;5031994;28;20698;-67
2022/09/12 08:36:16;;;;;;;1.70;0.60;;;;;;;23.98;38.01;94918.53;5031423;28;20201;-70
2022/09/12 08:38:45;;;;;;;0.90;0.87;;;;;;;24.10;38.17;94917.75;5051868;28;20710;-68
2022/09/12 08:41:26;;;;;;;0.33;0.33;;;;;;;24.59;37.68;94921.03;5051596;28;20202;-67
2022/09/12 08:44:26;;;;;;;0.40;0.40;;;;;;;24.35;37.73;94919.22;5042643;28;20236;-68
2022/09/12 08:47:25;;;;;;;1.13;1.03;;;;;;;24.35;37.51;94923.81;5030068;28;20667;-67
2022/09/12 08:50:04;;;;;;;0.93;0.67;;;;;;;24.15;37.67;94925.56;5032165;28;20263;-68
2022/09/12 08:52:52;;;;;;;0.40;0.40;;;;;;;24.04;38.47;94924.47;5031896;28;20211;-68
2022/09/12 08:55:26;;;;;;;0.20;0.20;;;;;;;23.62;38.84;94917.81;5045705;28;20204;-68
2022/09/12 08:57:53;;;;;;;0.20;0.20;;;;;;;23.63;38.75;94914.06;5039912;28;20750;-69
2022/09/12 09:00:20;;;;;;;0.37;0.37;;;;;;;23.67;38.17;94909.56;5037191;28;20684;-69
2022/09/12 09:03:05;;;;;;;2.63;1.83;;;;;;;23.82;38.02;94919.56;5051326;28;20359;-66
2022/09/12 09:05:41;;;;;;;0.23;0.23;;;;;;;24.29;38.02;94907.19;5036968;28;20243;-66
2022/09/12 09:08:28;;;;;;;0.10;0.10;;;;;;;24.15;37.03;94898.78;5050999;28;20219;-67
2022/09/12 09:11:24;;;;;;;0.50;0.50;;;;;;;24.23;36.47;94900.53;5047503;28;20260;-69
2022/09/12 09:16:56;;;;;;;0.47;0.47;;;;;;;24.44;36.04;94895.75;5053025;28;20230;-66
2022/09/12 09:19:41;;;;;;;0.83;0.83;;;;;;;24.57;36.50;94899.94;5037068;28;20234;-69
2022/09/12 09:22:43;;;;;;;0.20;0.20;;;;;;;24.63;35.95;94893.22;5051038;28;20299;-69
2022/09/12 09:25:22;;;;;;;0.37;0.37;;;;;;;24.89;36.82;94893.50;5049204;28;20250;-65
2022/09/12 09:28:08;;;;;;;0.40;0.40;;;;;;;25.08;35.49;94893.63;5047922;28;20219;-65
2022/09/12 09:30:35;;;;;;;0.33;0.33;;;;;;;25.03;35.70;94882.38;5042735;28;20351;-68
2022/09/12 09:33:05;;;;;;;0.80;0.80;;;;;;;25.57;34.76;94871.75;5033087;28;20209;-68
2022/09/12 09:35:47;;;;;;;0.20;0.20;;;;;;;25.76;35.42;94869.13;5040938;28;20204;-66
2022/09/12 09:38:46;;;;;;;1.13;1.03;;;;;;;24.95;34.71;94878.75;5050194;28;20201;-66
2022/09/12 09:41:37;;;;;;;0.30;0.30;;;;;;;25.74;34.34;94874.84;5035526;28;20291;-68
2022/09/12 09:44:05;;;;;;;0.20;0.20;;;;;;;25.77;35.37;94870.66;5050782;28;20224;-69
2022/09/12 09:46:37;;;;;;;0.90;0.90;;;;;;;25.24;34.92;94874.03;5050365;28;20659;-72
2022/09/12 09:49:06;;;;;;;1.60;1.27;;;;;;;25.35;34.13;94858.97;5049825;28;20311;-66
2022/09/12 09:51:38;;;;;;;1.23;0.97;;;;;;;25.34;34.16;94884.25;5032800;28;20646;-68
2022/09/12 09:54:17;;;;;;;0.10;0.10;;;;;;;24.31;35.85;94880.84;5039162;28;20215;-65
2022/09/12 09:56:44;;;;;;;0.20;0.20;;;;;;;24.93;35.27;94875.63;5037532;28;20213;-68
2022/09/12 09:59:17;;;;;;;0.30;0.30;;;;;;;25.95;35.54;94866.44;5029686;28;20270;-67
2022/09/12 10:02:02;;;;;;;0.40;0.40;;;;;;;26.52;33.50;94862.97;5030323;28;20201;-66
2022/09/12 10:04:33;;;;;;;0.63;0.63;;;;;;;26.03;33.43;94862.78;5037101;28;20196;-68
2022/09/12 10:07:18;;;;;;;0.40;0.40;;;;;;;27.15;32.89;94857.97;5048924;28;20258;-67
2022/09/12 10:10:06;;;;;;;0.43;0.43;;;;;;;26.55;33.56;94868.41;5040734;28;20613;-68
2022/09/12 10:12:33;;;;;;;1.83;1.73;;;;;;;26.32;33.05;94859.56;5033314;28;20201;-70
2022/09/12 10:15:14;;;;;;;0.67;0.67;;;;;;;26.57;32.84;94844.66;5055839;28;20196;-64
2022/09/12 10:17:43;;;;;;;1.17;0.60;;;;;;;26.51;33.19;94835.34;5058095;28;20203;-66
2022/09/12 10:20:30;;;;;;;0.57;0.57;;;;;;;27.18;31.94;94843.78;5045082;28;20212;-71
2022/09/12 10:22:59;;;;;;;1.00;0.90;;;;;;;26.83;32.17;94847.44;5045409;28;20190;-69
2022/09/12 10:25:27;;;;;;;0.20;0.20;;;;;;;26.33;31.86;94836.91;5041674;28;20196;-66
2022/09/12 10:27:57;;;;;;;0.30;0.30;;;;;;;26.14;33.21;94853.06;5046491;28;20315;-67
2022/09/12 10:30:27;;;;;;;1.97;1.27;;;;;;;26.74;32.60;94844.22;5029656;28;20201;-68
2022/09/12 10:33:07;;;;;;;0.23;0.23;;;;;;;26.15;33.54;94849.22;5032121;28;20213;-69
2022/09/12 10:35:48;;;;;;;0.80;0.80;;;;;;;26.60;33.99;94862.78;5039423;28;20299;-67
2022/09/12 10:38:26;;;;;;;0.73;0.73;;;;;;;26.23;33.60;94856.31;5043632;28;20561;-67
2022/09/12 10:41:04;;;;;;;0.63;0.63;;;;;;;26.35;32.89;94872.25;5030114;28;20279;-69
2022/09/12 10:43:41;;;;;;;0.90;0.83;;;;;;;26.32;32.83;94851.50;5049118;28;20236;-67
2022/09/12 10:46:17;;;;;;;0.67;0.57;;;;;;;26.19;32.43;94860.84;5036174;28;20201;-69
2022/09/12 10:49:11;;;;;;;0.60;0.53;;;;;;;25.55;32.39;94852.56;5036304;28;20223;-65
2022/09/12 10:51:37;;;;;;;0.60;0.60;;;;;;;25.84;32.62;94843.97;5032729;28;20200;-67
2022/09/12 10:54:09;;;;;;;0.40;0.40;;;;;;;26.82;30.67;94853.19;5038115;28;20300;-66
2022/09/12 10:57:18;;;;;;;0.30;0.30;;;;;;;26.81;30.74;94854.31;5034379;28;20229;-68
2022/09/12 11:00:26;;;;;;;0.87;0.70;;;;;;;25.99;31.31;94856.56;5030461;28;20336;-66
2022/09/12 11:03:23;;;;;;;0.73;0.70;;;;;;;26.59;31.49;94852.34;5041112;28;20284;-69
2022/09/12 11:06:00;;;;;;;0.97;0.60;;;;;;;26.91;31.14;94856.41;5049868;28;20266;-66
2022/09/12 11:08:46;;;;;;;0.80;0.80;;;;;;;26.63;31.42;94843.22;5044477;28;20901;-70
2022/09/12 11:11:30;;;;;;;0.33;0.33;;;;;;;26.12;32.21;94852.63;5033720;28;20969;-66
2022/09/12 11:14:13;;;;;;;0.60;0.60;;;;;;;26.20;32.24;94854.34;5047726;28;20204;-68
2022/09/12 11:16:59;;;;;;;0.50;0.50;;;;;;;25.80;33.68;94865.38;5053617;28;20214;-65
2022/09/12 11:19:53;;;;;;;0.30;0.30;;;;;;;26.25;32.35;94864.00;5049296;28;20209;-69
2022/09/12 11:22:35;;;;;;;0.27;0.27;;;;;;;26.72;32.48;94851.09;5047013;28;20200;-70
2022/09/12 11:25:23;;;;;;;0.73;0.70;;;;;;;27.11;31.88;94852.53;5041022;28;20188;-70
2022/09/12 11:27:53;;;;;;;0.50;0.50;;;;;;;26.34;31.80;94851.91;5049101;28;20225;-70
2022/09/12 11:30:20;;;;;;;0.40;0.40;;;;;;;26.56;31.83;94855.75;5042627;28;20726;-70
2022/09/12 11:32:47;;;;;;;0.20;0.20;;;;;;;26.58;31.46;94858.88;5041718;28;20706;-67
2022/09/12 11:35:14;;;;;;;0.60;0.60;;;;;;;26.14;32.44;94863.81;5050416;28;20691;-63
2022/09/12 11:37:43;;;;;;;0.90;0.90;;;;;;;26.55;32.96;94862.28;5032949;28;20209;-70
2022/09/12 11:40:38;;;;;;;3.80;0.63;;;;;;;26.24;32.17;94863.22;5039071;28;20959;-67
2022/09/12 11:43:26;;;;;;;1.63;1.03;;;;;;;26.55;32.46;94859.59;5038149;28;20237;-68
2022/09/12 11:45:56;;;;;;;0.70;0.70;;;;;;;26.26;32.68;94850.22;5052675;28;20200;-69
2022/09/12 11:48:42;;;;;;;0.40;0.40;;;;;;;26.27;32.36;94867.91;5048854;28;20239;-67
2022/09/12 11:51:26;;;;;;;0.20;0.20;;;;;;;25.74;32.49;94855.28;5033414;28;20278;-66
2022/09/12 11:54:08;;;;;;;5.77;1.70;;;;;;;26.04;32.21;94864.34;5032430;28;20268;-70
2022/09/12 11:56:41;;;;;;;0.37;0.37;;;;;;;25.98;32.23;94855.03;5036081;28;20544;-68
2022/09/12 11:59:17;;;;;;;0.20;0.20;;;;;;;26.56;32.11;94856.56;5050665;28;20746;-69
2022/09/12 12:01:50;;;;;;;0.27;0.27;;;;;;;27.21;31.23;94861.91;5052327;28;20606;-67
2022/09/12 12:04:23;;;;;;;0.43;0.43;;;;;;;27.03;30.63;94866.97;5033242;28;20667;-74
2022/09/12 12:07:02;;;;;;;0.20;0.20;;;;;;;27.06;30.89;94854.75;5044743;28;20668;-68
2022/09/12 12:09:30;;;;;;;0.40;0.40;;;;;;;26.21;32.25;94857.78;5038313;28;20305;-68